Time;durP1;ratioP1;P1;durP2;ratioP2;P2;SDS_P1;SDS_P2;PMS_P1;PMS_P2;Temp;Humidity;BMP_temperature;BMP_pressure;BME280_temperature;BME280_humidity;BME280_pressure;Samples;Min_cycle;Max_cycle;Signal;HPM_P1;HPM_P2
2022/07/05 00:00:50;;;;;;;10.05;9.15;;;;;;;21.47;100.00;99477.81;5091806;28;20423;-50
2022/07/05 00:03:16;;;;;;;10.75;9.43;;;;;;;21.48;100.00;99489.75;5091883;28;20457;-51
2022/07/05 00:05:43;;;;;;;10.68;8.77;;;;;;;21.42;100.00;99481.09;5091644;28;20104;-50
2022/07/05 00:08:09;;;;;;;12.23;9.93;;;;;;;21.35;100.00;99470.88;5091844;28;20529;-49
2022/07/05 00:10:36;;;;;;;10.05;9.05;;;;;;;21.30;100.00;99457.44;5091788;28;20052;-48
2022/07/05 00:13:03;;;;;;;10.65;9.57;;;;;;;21.20;100.00;99452.09;5091754;28;20048;-49
2022/07/05 00:15:31;;;;;;;12.10;8.80;;;;;;;21.26;100.00;99451.16;5091479;28;20495;-47
2022/07/05 00:17:57;;;;;;;11.52;10.07;;;;;;;21.18;100.00;99440.56;5091715;28;20056;-50
2022/07/05 00:20:24;;;;;;;11.30;9.70;;;;;;;21.12;100.00;99440.28;5091853;28;20477;-47
2022/07/05 00:22:50;;;;;;;10.48;9.50;;;;;;;21.14;100.00;99451.78;5091539;28;20511;-47
2022/07/05 00:25:17;;;;;;;10.50;9.18;;;;;;;21.19;100.00;99458.84;5091547;28;20050;-50
2022/07/05 00:27:43;;;;;;;10.23;9.23;;;;;;;21.20;100.00;99463.22;5091330;28;20575;-48
2022/07/05 00:30:11;;;;;;;10.43;9.45;;;;;;;21.04;100.00;99453.56;5091241;28;20051;-48
2022/07/05 00:32:38;;;;;;;10.27;9.45;;;;;;;21.07;100.00;99449.16;5091529;28;20052;-48
2022/07/05 00:35:05;;;;;;;9.25;8.45;;;;;;;21.01;100.00;99443.28;5091415;28;20058;-47
2022/07/05 00:37:31;;;;;;;12.20;10.90;;;;;;;20.74;100.00;99437.06;5091319;28;20044;-48
2022/07/05 00:39:58;;;;;;;13.18;11.02;;;;;;;20.78;100.00;99410.69;5091296;28;20138;-50
2022/07/05 00:42:24;;;;;;;11.82;10.82;;;;;;;20.82;100.00;99410.63;5091216;28;20055;-49
2022/07/05 00:44:50;;;;;;;13.13;10.35;;;;;;;20.80;100.00;99405.50;5091541;28;20048;-48
2022/07/05 00:47:17;;;;;;;12.20;9.70;;;;;;;20.79;100.00;99398.34;5091075;28;20142;-50
2022/07/05 00:49:44;;;;;;;11.40;10.30;;;;;;;20.79;100.00;99389.19;5091218;28;20051;-52
2022/07/05 00:52:12;;;;;;;11.65;9.15;;;;;;;20.87;100.00;99401.78;5091233;28;20495;-47
2022/07/05 00:54:39;;;;;;;11.95;10.50;;;;;;;20.79;100.00;99392.78;5090899;28;20048;-50
2022/07/05 00:57:06;;;;;;;11.20;10.20;;;;;;;20.64;100.00;99385.91;5091313;28;20051;-51
2022/07/05 00:59:35;;;;;;;11.80;10.00;;;;;;;20.67;100.00;99385.06;5091046;28;20052;-50
2022/07/05 01:02:01;;;;;;;11.43;10.27;;;;;;;20.63;100.00;99373.22;5091026;28;20047;-52
2022/07/05 01:04:27;;;;;;;11.80;10.20;;;;;;;20.64;100.00;99369.97;5090868;28;20051;-48
2022/07/05 01:06:55;;;;;;;11.68;10.48;;;;;;;20.65;100.00;99365.19;5090947;28;20539;-50
2022/07/05 01:09:23;;;;;;;11.65;10.45;;;;;;;20.62;100.00;99366.81;5090640;28;20048;-51
2022/07/05 01:11:50;;;;;;;12.20;10.98;;;;;;;20.60;100.00;99363.69;5090570;28;20507;-48
2022/07/05 01:14:19;;;;;;;12.02;10.93;;;;;;;20.61;100.00;99365.25;5090670;28;20059;-49
2022/07/05 01:16:46;;;;;;;12.30;11.10;;;;;;;20.56;100.00;99354.63;5090762;28;20431;-51
2022/07/05 01:19:13;;;;;;;12.52;11.25;;;;;;;20.59;100.00;99364.13;5089933;28;20487;-49
2022/07/05 01:21:41;;;;;;;11.50;10.20;;;;;;;20.52;100.00;99372.63;5090617;28;20066;-48
2022/07/05 01:24:09;;;;;;;10.80;8.98;;;;;;;20.27;100.00;99356.34;5090766;28;20052;-48
2022/07/05 01:26:38;;;;;;;12.80;11.43;;;;;;;20.39;100.00;99347.34;5090499;28;20063;-49
2022/07/05 01:29:05;;;;;;;12.45;11.32;;;;;;;20.40;100.00;99351.72;5090495;28;20052;-48
2022/07/05 01:31:31;;;;;;;11.98;10.60;;;;;;;20.28;100.00;99355.91;5090567;28;20052;-48
2022/07/05 01:33:58;;;;;;;12.20;10.38;;;;;;;20.32;100.00;99337.16;5090397;28;20054;-47
2022/07/05 01:36:25;;;;;;;13.25;11.95;;;;;;;20.28;100.00;99344.00;5090455;28;20056;-47
2022/07/05 01:38:51;;;;;;;12.93;11.05;;;;;;;20.14;100.00;99339.50;5090217;28;20048;-48
2022/07/05 01:41:18;;;;;;;12.35;11.18;;;;;;;20.16;100.00;99325.94;5090572;28;20418;-47
2022/07/05 01:43:44;;;;;;;12.38;11.10;;;;;;;20.08;100.00;99328.06;5090492;28;20048;-48
2022/07/05 01:46:12;;;;;;;13.90;11.52;;;;;;;20.10;100.00;99317.28;5090237;28;20052;-47
2022/07/05 01:48:41;;;;;;;12.52;10.57;;;;;;;19.99;100.00;99325.03;5090288;28;20052;-47
2022/07/05 01:51:13;;;;;;;12.68;9.82;;;;;;;20.07;100.00;99309.78;5090208;28;20063;-47
2022/07/05 01:53:41;;;;;;;11.98;10.88;;;;;;;19.98;100.00;99312.34;5090121;28;20048;-47
2022/07/05 01:56:07;;;;;;;13.57;9.73;;;;;;;20.01;100.00;99319.84;5090257;28;20047;-47
2022/07/05 01:58:35;;;;;;;12.35;11.15;;;;;;;19.95;100.00;99324.31;5089954;28;20134;-48
2022/07/05 02:01:01;;;;;;;14.48;11.32;;;;;;;19.94;100.00;99314.41;5090094;28;20055;-47
2022/07/05 02:03:29;;;;;;;12.50;11.30;;;;;;;19.95;100.00;99302.84;5089941;28;20189;-48
2022/07/05 02:05:55;;;;;;;11.05;8.95;;;;;;;19.98;100.00;99307.56;5089856;28;20055;-48
2022/07/05 02:08:28;;;;;;;13.63;12.02;;;;;;;19.96;100.00;99304.44;5089800;28;20051;-47
2022/07/05 02:10:54;;;;;;;11.85;10.43;;;;;;;19.96;100.00;99314.78;5090016;28;20058;-48
2022/07/05 02:13:21;;;;;;;11.20;10.10;;;;;;;20.01;100.00;99317.06;5090385;28;20052;-49
2022/07/05 02:15:48;;;;;;;12.85;11.55;;;;;;;19.94;100.00;99320.75;5090288;28;20406;-47
2022/07/05 02:18:14;;;;;;;11.88;10.88;;;;;;;19.97;100.00;99322.69;5090262;28;20095;-47
2022/07/05 02:20:41;;;;;;;12.82;11.70;;;;;;;19.95;100.00;99327.88;5089930;28;20082;-47
2022/07/05 02:23:08;;;;;;;15.82;12.25;;;;;;;19.97;100.00;99331.03;5089968;28;20044;-47
2022/07/05 02:25:34;;;;;;;12.65;11.50;;;;;;;20.06;100.00;99322.16;5089842;28;20049;-47
2022/07/05 02:28:01;;;;;;;12.23;10.98;;;;;;;20.20;100.00;99326.66;5089651;28;20056;-47
2022/07/05 02:30:27;;;;;;;13.02;11.05;;;;;;;20.55;100.00;99335.56;5090876;28;20051;-47
2022/07/05 02:32:54;;;;;;;11.95;10.82;;;;;;;20.88;100.00;99383.84;5093255;28;20081;-47
2022/07/05 02:35:20;;;;;;;11.85;10.68;;;;;;;21.16;100.00;99438.22;5093364;28;20530;-47
2022/07/05 02:37:47;;;;;;;11.35;10.25;;;;;;;21.37;100.00;99482.41;5093416;28;20058;-48
2022/07/05 02:40:14;;;;;;;12.20;10.80;;;;;;;21.72;100.00;99521.13;5093359;28;20059;-47
2022/07/05 02:42:40;;;;;;;11.95;10.40;;;;;;;22.00;100.00;99536.44;5093091;28;20052;-47
2022/07/05 02:45:07;;;;;;;11.25;9.93;;;;;;;22.12;100.00;99538.53;5093194;28;20067;-48
2022/07/05 02:47:34;;;;;;;10.85;9.95;;;;;;;22.45;100.00;99542.19;5092998;28;20043;-49
2022/07/05 02:50:05;;;;;;;10.70;9.60;;;;;;;22.58;100.00;99538.69;5093203;28;20139;-48
2022/07/05 02:52:31;;;;;;;10.88;9.93;;;;;;;22.83;100.00;99527.66;5093168;28;20089;-48
2022/07/05 02:54:58;;;;;;;10.95;9.68;;;;;;;23.05;100.00;99501.94;5093097;28;20059;-48
2022/07/05 02:57:24;;;;;;;10.27;9.32;;;;;;;23.22;100.00;99476.25;5092765;28;20135;-47
2022/07/05 02:59:53;;;;;;;9.45;8.50;;;;;;;23.51;100.00;99439.06;5092854;28;20507;-49
2022/07/05 03:02:19;;;;;;;10.35;9.18;;;;;;;23.68;100.00;99411.78;5092791;28;20083;-48
2022/07/05 03:04:45;;;;;;;10.05;9.05;;;;;;;23.97;100.00;99366.84;5092952;28;20502;-48
2022/07/05 03:07:12;;;;;;;10.15;9.15;;;;;;;24.18;100.00;99320.50;5092739;28;20103;-50
2022/07/05 03:09:38;;;;;;;10.75;9.60;;;;;;;24.42;100.00;99262.84;5092786;28;20060;-49
2022/07/05 03:12:06;;;;;;;10.20;8.70;;;;;;;24.58;100.00;99197.38;5092853;28;20056;-51
2022/07/05 03:14:32;;;;;;;9.85;8.90;;;;;;;24.66;100.00;99172.66;5092711;28;20058;-52
2022/07/05 03:16:58;;;;;;;10.55;8.80;;;;;;;25.15;100.00;99082.13;5092687;28;20054;-50
2022/07/05 03:19:25;;;;;;;10.30;9.27;;;;;;;25.16;100.00;99018.38;5092585;28;20059;-50
2022/07/05 03:21:51;;;;;;;10.02;8.85;;;;;;;25.47;100.00;98968.47;5092729;28;20430;-50
2022/07/05 03:24:18;;;;;;;9.68;8.88;;;;;;;25.55;100.00;98910.75;5092325;28;20528;-53
2022/07/05 03:26:44;;;;;;;11.82;9.18;;;;;;;25.68;100.00;98876.84;5092517;28;20047;-52
2022/07/05 03:29:10;;;;;;;10.23;9.32;;;;;;;25.96;100.00;98803.75;5092161;28;20048;-49
2022/07/05 03:31:37;;;;;;;10.45;9.30;;;;;;;25.87;100.00;98772.91;5092299;28;20052;-51
2022/07/05 03:34:03;;;;;;;12.80;9.48;;;;;;;26.24;100.00;98720.00;5092311;28;20109;-50
2022/07/05 03:36:29;;;;;;;9.15;8.23;;;;;;;26.45;100.00;98623.28;5092450;28;20052;-50
2022/07/05 03:38:56;;;;;;;9.98;8.98;;;;;;;26.56;100.00;98607.91;5092476;28;20219;-52
2022/07/05 03:41:23;;;;;;;9.60;8.60;;;;;;;26.77;100.00;98546.88;5091687;28;20139;-50
2022/07/05 03:43:49;;;;;;;9.20;8.38;;;;;;;26.72;100.00;98543.50;5092346;28;20058;-50
2022/07/05 03:46:15;;;;;;;9.70;8.70;;;;;;;26.84;100.00;98509.91;5092182;28;20050;-52
2022/07/05 03:48:41;;;;;;;11.93;8.20;;;;;;;27.04;100.00;98436.75;5092330;28;20059;-52
2022/07/05 03:51:08;;;;;;;9.73;8.65;;;;;;;26.98;100.00;98424.66;5091869;28;20052;-50
2022/07/05 03:53:34;;;;;;;10.50;7.55;;;;;;;27.20;100.00;98416.50;5092254;28;20043;-51
2022/07/05 03:56:01;;;;;;;8.77;7.88;;;;;;;27.17;100.00;98399.84;5092031;28;20048;-52
2022/07/05 03:58:28;;;;;;;8.85;8.00;;;;;;;27.55;100.00;98338.75;5092006;28;20047;-51
2022/07/05 04:00:54;;;;;;;8.32;7.63;;;;;;;27.73;100.00;98284.09;5091900;28;20142;-52
2022/07/05 04:03:21;;;;;;;10.27;7.80;;;;;;;27.96;100.00;98221.00;5091962;28;20052;-50
2022/07/05 04:05:47;;;;;;;7.72;7.03;;;;;;;27.97;100.00;98194.34;5091783;28;20052;-52
2022/07/05 04:08:13;;;;;;;7.43;6.80;;;;;;;27.99;100.00;98162.84;5091825;28;20054;-51
2022/07/05 04:10:39;;;;;;;8.77;6.45;;;;;;;28.22;100.00;98150.34;5091920;28;20055;-53
2022/07/05 04:13:06;;;;;;;9.25;6.90;;;;;;;28.22;100.00;98138.31;5091717;28;20048;-52
2022/07/05 04:15:32;;;;;;;7.30;6.60;;;;;;;28.16;100.00;98129.88;5092124;28;20056;-50
2022/07/05 04:17:59;;;;;;;6.78;6.07;;;;;;;28.52;100.00;98114.00;5091890;28;20052;-50
2022/07/05 04:20:25;;;;;;;6.22;5.68;;;;;;;28.75;100.00;98102.72;5091982;28;20056;-50
2022/07/05 04:22:52;;;;;;;6.10;5.40;;;;;;;28.32;100.00;98098.13;5091724;28;20058;-51
2022/07/05 04:25:19;;;;;;;6.10;5.50;;;;;;;28.74;100.00;98099.13;5091919;28;20047;-51
2022/07/05 04:27:45;;;;;;;6.05;5.45;;;;;;;28.82;100.00;98088.88;5091636;28;20148;-53
2022/07/05 04:30:12;;;;;;;5.80;5.30;;;;;;;29.14;100.00;98091.38;5092130;28;20154;-54
2022/07/05 04:32:39;;;;;;;8.38;5.60;;;;;;;29.47;100.00;98084.81;5092041;28;20480;-51
2022/07/05 04:35:06;;;;;;;5.90;5.30;;;;;;;29.33;100.00;98091.56;5091347;28;20609;-60
2022/07/05 04:37:33;;;;;;;7.68;4.90;;;;;;;29.52;100.00;98089.69;5091817;28;20044;-60
2022/07/05 04:39:59;;;;;;;6.63;5.00;;;;;;;29.39;100.00;98086.66;5091483;28;20360;-61
2022/07/05 04:42:25;;;;;;;6.70;5.00;;;;;;;29.71;100.00;98117.34;5091707;28;20105;-60
2022/07/05 04:44:51;;;;;;;5.43;4.93;;;;;;;28.63;100.00;98101.19;5091130;28;20048;-55
2022/07/05 04:47:17;;;;;;;6.00;4.50;;;;;;;28.83;100.00;98100.91;5091224;28;20069;-59
2022/07/05 04:49:44;;;;;;;7.43;5.40;;;;;;;29.24;100.00;98103.13;5091000;28;20529;-58
2022/07/05 04:52:11;;;;;;;7.75;5.00;;;;;;;29.56;100.00;98100.72;5090883;28;20054;-59
2022/07/05 04:54:37;;;;;;;11.90;5.13;;;;;;;29.47;100.00;98093.28;5090449;28;20044;-58
2022/07/05 04:57:04;;;;;;;5.72;5.18;;;;;;;29.54;100.00;98112.50;5090963;28;20058;-57
2022/07/05 04:59:30;;;;;;;5.93;5.32;;;;;;;29.57;100.00;98104.28;5091243;28;20100;-59
2022/07/05 05:01:56;;;;;;;5.63;4.70;;;;;;;30.11;100.00;98118.63;5091049;28;20491;-59
2022/07/05 05:04:23;;;;;;;5.32;4.70;;;;;;;30.01;100.00;98131.56;5090976;28;20048;-58
2022/07/05 05:06:49;;;;;;;5.30;4.80;;;;;;;30.36;100.00;98142.16;5090939;28;20052;-59
2022/07/05 05:09:16;;;;;;;6.72;4.60;;;;;;;30.54;100.00;98140.72;5091129;28;20472;-57
2022/07/05 05:11:42;;;;;;;5.22;4.20;;;;;;;30.47;100.00;98169.56;5090662;28;20063;-59
2022/07/05 05:14:09;;;;;;;5.05;4.00;;;;;;;30.29;100.00;98170.19;5091047;28;20403;-57
2022/07/05 05:16:35;;;;;;;8.63;4.30;;;;;;;30.68;100.00;98189.72;5090687;28;20058;-56
2022/07/05 05:19:01;;;;;;;4.40;3.45;;;;;;;30.39;100.00;98163.72;5090752;28;20048;-62
2022/07/05 05:21:27;;;;;;;7.25;4.82;;;;;;;29.88;100.00;98134.97;5090534;28;20048;-56
2022/07/05 05:23:54;;;;;;;5.60;4.30;;;;;;;29.41;100.00;98134.88;5090331;28;20058;-57
2022/07/05 05:26:20;;;;;;;4.65;3.75;;;;;;;30.44;100.00;98148.00;5090518;28;20051;-56
2022/07/05 05:28:47;;;;;;;4.65;4.15;;;;;;;30.47;100.00;98170.31;5090468;28;20455;-53
2022/07/05 05:31:13;;;;;;;6.18;3.70;;;;;;;31.01;100.00;98191.50;5090578;28;20185;-60
2022/07/05 05:33:40;;;;;;;5.05;3.83;;;;;;;30.46;100.00;98168.03;5090206;28;20048;-59
2022/07/05 05:36:07;;;;;;;6.05;3.72;;;;;;;30.40;100.00;98153.94;5090631;28;20121;-59
2022/07/05 05:38:33;;;;;;;4.93;3.60;;;;;;;30.95;100.00;98163.25;5090241;28;20051;-56
2022/07/05 05:41:00;;;;;;;5.20;3.58;;;;;;;30.71;100.00;98188.66;5090544;28;20056;-62
2022/07/05 05:43:26;;;;;;;6.00;3.30;;;;;;;30.93;100.00;98191.31;5090199;28;20062;-57
2022/07/05 05:45:53;;;;;;;7.95;3.50;;;;;;;31.23;100.00;98215.25;5090178;28;20100;-54
2022/07/05 05:48:20;;;;;;;8.85;3.17;;;;;;;31.56;100.00;98253.81;5090096;28;20052;-59
2022/07/05 05:50:46;;;;;;;7.15;3.13;;;;;;;31.70;100.00;98272.47;5090129;28;20063;-58
2022/07/05 05:53:13;;;;;;;8.65;2.78;;;;;;;31.95;100.00;98295.13;5089972;28;20503;-56
2022/07/05 05:55:40;;;;;;;5.65;3.20;;;;;;;31.94;100.00;98302.88;5090065;28;20080;-55
2022/07/05 05:58:15;;;;;;;5.15;3.00;;;;;;;32.47;100.00;98328.03;5090085;28;20570;-53
2022/07/05 06:00:41;;;;;;;4.70;2.90;;;;;;;32.54;100.00;98345.22;5090106;28;20052;-57
2022/07/05 06:03:07;;;;;;;4.40;3.20;;;;;;;32.77;100.00;98402.44;5090204;28;20074;-56
2022/07/05 06:05:34;;;;;;;4.00;2.83;;;;;;;32.60;100.00;98381.25;5089853;28;20058;-56
2022/07/05 06:08:00;;;;;;;5.55;2.70;;;;;;;32.78;100.00;98394.69;5090165;28;20048;-53
2022/07/05 06:10:29;;;;;;;5.90;2.88;;;;;;;32.80;100.00;98412.72;5089644;28;20055;-57
2022/07/05 06:12:57;;;;;;;5.22;2.60;;;;;;;32.80;100.00;98480.84;5089836;28;20138;-62
2022/07/05 06:15:24;;;;;;;4.05;1.90;;;;;;;32.31;100.00;98531.13;5089705;28;20529;-56
2022/07/05 06:17:50;;;;;;;5.45;2.40;;;;;;;31.84;100.00;98488.72;5089865;28;20135;-55
2022/07/05 06:20:19;;;;;;;5.68;2.13;;;;;;;31.65;100.00;98514.09;5089591;28;20063;-61
2022/07/05 06:22:45;;;;;;;5.60;1.95;;;;;;;31.53;100.00;98523.97;5089932;28;20048;-59
2022/07/05 06:25:12;;;;;;;2.13;1.90;;;;;;;32.15;100.00;98501.59;5089587;28;20094;-62
2022/07/05 06:27:39;;;;;;;5.53;2.60;;;;;;;32.10;100.00;98534.41;5089426;28;20112;-61
2022/07/05 06:30:07;;;;;;;5.93;2.10;;;;;;;32.76;100.00;98542.81;5089801;28;20044;-61
2022/07/05 06:32:34;;;;;;;2.78;2.25;;;;;;;33.01;100.00;98548.50;5089265;28;20052;-61
2022/07/05 06:35:00;;;;;;;4.13;2.35;;;;;;;33.25;100.00;98559.78;5089767;28;20455;-61
2022/07/05 06:37:26;;;;;;;4.10;2.20;;;;;;;33.36;100.00;98558.91;5089566;28;20193;-61
2022/07/05 06:39:52;;;;;;;2.45;2.05;;;;;;;33.61;100.00;98548.22;5089662;28;20471;-61
2022/07/05 06:42:19;;;;;;;3.22;2.13;;;;;;;33.07;100.00;98554.88;5089394;28;20048;-61
2022/07/05 06:44:45;;;;;;;2.70;2.05;;;;;;;33.17;100.00;98566.63;5089395;28;20052;-61
2022/07/05 06:47:11;;;;;;;4.35;2.20;;;;;;;32.70;100.00;98542.09;5089180;28;20066;-61
2022/07/05 06:49:38;;;;;;;2.28;2.08;;;;;;;32.75;100.00;98549.00;5089367;28;20052;-60
2022/07/05 06:52:05;;;;;;;6.63;2.20;;;;;;;32.90;100.00;98603.31;5089389;28;20056;-61
2022/07/05 06:54:31;;;;;;;2.80;2.10;;;;;;;33.24;100.00;98626.44;5089447;28;20578;-61
2022/07/05 06:56:57;;;;;;;2.33;1.95;;;;;;;32.56;100.00;98586.63;5089072;28;20056;-61
2022/07/05 06:59:24;;;;;;;2.17;1.88;;;;;;;32.40;100.00;98558.38;5089231;28;20109;-60
2022/07/05 07:01:50;;;;;;;2.63;2.33;;;;;;;32.45;100.00;98581.03;5089324;28;20112;-61
2022/07/05 07:04:16;;;;;;;2.17;1.73;;;;;;;32.13;100.00;98665.84;5089202;28;20071;-60
2022/07/05 07:06:43;;;;;;;3.22;1.80;;;;;;;32.86;100.00;98664.53;5089292;28;20048;-61
2022/07/05 07:09:18;;;;;;;2.50;1.90;;;;;;;33.24;100.00;98713.72;5089106;28;20048;-61
2022/07/05 07:11:44;;;;;;;4.93;2.03;;;;;;;34.03;100.00;98741.28;5089003;28;20052;-61
2022/07/05 07:14:11;;;;;;;2.05;1.70;;;;;;;34.33;100.00;98743.97;5088908;28;20472;-61
2022/07/05 07:16:37;;;;;;;3.75;2.30;;;;;;;34.40;100.00;98749.03;5090369;28;20055;-61
2022/07/05 07:19:03;;;;;;;5.53;1.92;;;;;;;33.58;100.00;98704.84;5092801;28;20454;-61
2022/07/05 07:21:29;;;;;;;5.40;1.98;;;;;;;33.28;100.00;98692.22;5092463;28;20142;-61
2022/07/05 07:23:56;;;;;;;1.98;1.60;;;;;;;32.98;100.00;98700.78;5092743;28;20048;-61
2022/07/05 07:26:23;;;;;;;2.13;1.90;;;;;;;33.67;100.00;98708.09;5092425;28;20117;-61
2022/07/05 07:28:49;;;;;;;2.50;1.95;;;;;;;34.14;100.00;98704.16;5092573;28;20055;-61
2022/07/05 07:31:15;;;;;;;2.00;1.80;;;;;;;34.39;100.00;98710.47;5091999;28;20048;-61
2022/07/05 07:33:41;;;;;;;1.50;1.40;;;;;;;34.24;100.00;98758.56;5092373;28;20169;-61
2022/07/05 07:36:08;;;;;;;1.98;1.58;;;;;;;34.52;100.00;98758.19;5092148;28;20055;-61
2022/07/05 07:38:34;;;;;;;3.65;1.48;;;;;;;34.13;100.00;98748.13;5092085;28;20052;-61
2022/07/05 07:41:01;;;;;;;1.60;1.50;;;;;;;34.61;100.00;98729.31;5092089;28;20147;-61
2022/07/05 07:43:28;;;;;;;4.32;1.52;;;;;;;34.82;100.00;98732.34;5091928;28;20063;-61
2022/07/05 07:45:54;;;;;;;1.80;1.50;;;;;;;34.84;100.00;98724.03;5092295;28;20058;-61
2022/07/05 07:48:20;;;;;;;1.95;1.55;;;;;;;34.92;100.00;98727.78;5091953;28;20139;-61
2022/07/05 07:50:47;;;;;;;5.18;1.80;;;;;;;34.90;100.00;98761.75;5091976;28;20067;-61
2022/07/05 07:53:13;;;;;;;1.70;1.58;;;;;;;34.84;100.00;98746.81;5091955;28;20052;-61
2022/07/05 07:55:39;;;;;;;3.13;1.65;;;;;;;34.97;100.00;98768.88;5092332;28;20052;-61
2022/07/05 07:58:07;;;;;;;3.55;1.50;;;;;;;34.79;100.00;98781.84;5092061;28;20048;-61
2022/07/05 08:00:33;;;;;;;2.17;1.40;;;;;;;35.25;100.00;98782.66;5092279;28;20052;-61
2022/07/05 08:02:59;;;;;;;3.55;1.55;;;;;;;35.16;100.00;98772.47;5091943;28;20162;-61
2022/07/05 08:05:25;;;;;;;2.20;1.88;;;;;;;34.73;100.00;98762.00;5092116;28;20126;-61
2022/07/05 08:07:52;;;;;;;3.33;2.00;;;;;;;35.09;100.00;98756.78;5091710;28;20105;-61
2022/07/05 08:10:18;;;;;;;3.50;2.38;;;;;;;35.35;100.00;98766.66;5091596;28;20530;-61
2022/07/05 08:12:44;;;;;;;2.03;1.52;;;;;;;34.75;100.00;98761.47;5091477;28;20135;-62
2022/07/05 08:15:11;;;;;;;1.77;1.38;;;;;;;35.28;100.00;98799.44;5091874;28;20090;-61
2022/07/05 08:21:30;;;;;;;1.40;1.20;;;;;;;35.43;100.00;98810.31;5091635;28;20055;-61
2022/07/05 08:23:09;;;;;;;2.00;1.30;;;;;;;35.67;100.00;98800.06;5091631;28;20067;-61
2022/07/05 08:25:35;;;;;;;2.08;1.10;;;;;;;35.58;100.00;98812.66;5091197;28;20052;-62
2022/07/05 08:28:01;;;;;;;1.55;1.45;;;;;;;35.72;100.00;98805.66;5091729;28;20048;-62
2022/07/05 08:30:28;;;;;;;3.42;1.55;;;;;;;35.59;99.46;98820.69;5091239;28;20052;-61
2022/07/05 08:32:54;;;;;;;1.77;1.60;;;;;;;35.75;92.74;98849.41;5091297;28;20081;-61
2022/07/05 08:35:21;;;;;;;1.15;1.15;;;;;;;35.96;90.43;98855.25;5091096;28;20139;-61
2022/07/05 08:37:47;;;;;;;1.23;1.13;;;;;;;35.89;95.09;98833.84;5091129;28;20079;-61
2022/07/05 08:40:15;;;;;;;3.10;1.50;;;;;;;35.69;97.60;98821.03;5091536;28;20130;-61
2022/07/05 08:42:42;;;;;;;1.40;1.30;;;;;;;35.13;100.00;98805.66;5091089;28;20081;-61
2022/07/05 08:45:09;;;;;;;1.23;0.98;;;;;;;35.89;100.00;98816.75;5091210;28;20135;-61
2022/07/05 08:47:37;;;;;;;1.92;1.05;;;;;;;35.11;93.04;98848.16;5091019;28;20081;-61
2022/07/05 08:50:05;;;;;;;1.75;1.15;;;;;;;35.39;97.56;98831.88;5091253;28;20386;-61
2022/07/05 08:52:33;;;;;;;2.35;1.20;;;;;;;35.54;99.16;98818.69;5091050;28;20048;-61
2022/07/05 08:55:00;;;;;;;1.58;1.10;;;;;;;35.55;100.00;98819.44;5091085;28;20076;-61
2022/07/05 08:57:26;;;;;;;1.50;1.40;;;;;;;35.68;100.00;98804.44;5090801;28;20479;-61
2022/07/05 08:59:52;;;;;;;3.25;1.42;;;;;;;34.65;100.00;98809.47;5091032;28;20047;-61
2022/07/05 09:02:21;;;;;;;2.55;1.20;;;;;;;35.51;100.00;98799.78;5090835;28;20052;-62
2022/07/05 09:04:50;;;;;;;3.08;1.85;;;;;;;35.90;100.00;98775.47;5090638;28;20052;-61
2022/07/05 09:07:17;;;;;;;1.48;1.20;;;;;;;35.73;100.00;98807.19;5090928;28;20062;-61
2022/07/05 09:09:46;;;;;;;1.75;1.20;;;;;;;35.70;95.35;98833.94;5090819;28;20056;-61
2022/07/05 09:12:14;;;;;;;1.58;1.05;;;;;;;35.80;99.57;98814.31;5091082;28;20055;-61
2022/07/05 09:14:41;;;;;;;1.35;1.08;;;;;;;35.46;96.53;98828.41;5090596;28;20507;-61
2022/07/05 09:17:07;;;;;;;1.70;1.15;;;;;;;35.47;83.24;98875.56;5090673;28;20055;-62
2022/07/05 09:19:34;;;;;;;0.80;0.80;;;;;;;35.66;82.48;98886.91;5090993;28;20106;-61
2022/07/05 09:22:05;;;;;;;1.30;1.20;;;;;;;35.63;84.65;98879.47;5090765;28;20048;-61
2022/07/05 09:24:31;;;;;;;1.58;1.27;;;;;;;35.32;82.21;98879.69;5090683;28;20052;-62
2022/07/05 09:27:04;;;;;;;4.47;1.55;;;;;;;34.93;86.77;98860.34;5090584;28;20476;-61
2022/07/05 09:29:30;;;;;;;;;;;;;;;34.47;84.25;98873.63;5090837;28;20056;-61
2022/07/05 09:31:56;;;;;;;3.90;1.15;;;;;;;34.48;88.50;98858.06;5090344;28;19928;-61
2022/07/05 09:34:23;;;;;;;1.40;1.30;;;;;;;33.57;92.43;98851.09;5090636;28;20044;-60
2022/07/05 09:36:51;;;;;;;4.38;1.13;;;;;;;34.72;97.51;98825.94;5090307;28;20138;-61
2022/07/05 09:39:18;;;;;;;5.25;1.40;;;;;;;34.80;100.00;98795.53;5090068;28;20056;-61
2022/07/05 09:41:45;;;;;;;1.42;1.33;;;;;;;35.35;100.00;98786.63;5090174;28;20085;-61
2022/07/05 09:44:11;;;;;;;4.32;2.08;;;;;;;35.21;100.00;98802.16;5090601;28;20048;-59
2022/07/05 09:46:37;;;;;;;1.45;1.42;;;;;;;34.65;100.00;98793.16;5090258;28;20083;-61
2022/07/05 09:49:04;;;;;;;2.20;1.75;;;;;;;34.82;100.00;98784.38;5090275;28;20130;-59
2022/07/05 09:51:48;;;;;;;1.88;1.30;;;;;;;34.72;99.25;98805.25;5090149;28;20055;-61
2022/07/05 09:54:14;;;;;;;;;;;;;;;34.29;100.00;98811.75;5090393;28;20412;-59
2022/07/05 09:56:48;;;;;;;1.90;1.40;;;;;;;34.33;99.79;98815.88;5089913;28;19930;-59
2022/07/05 09:59:16;;;;;;;6.22;1.98;;;;;;;34.59;97.46;98823.03;5089861;28;20079;-59
2022/07/05 10:01:43;;;;;;;2.65;1.60;;;;;;;34.47;100.00;98811.00;5090151;28;20048;-61
2022/07/05 10:04:09;;;;;;;4.60;2.25;;;;;;;34.65;100.00;98815.94;5089782;28;20506;-61
2022/07/05 10:06:36;;;;;;;1.90;1.67;;;;;;;34.76;100.00;98777.25;5090194;28;20044;-60
2022/07/05 10:09:02;;;;;;;6.22;1.90;;;;;;;34.36;100.00;98800.56;5089856;28;20059;-60
2022/07/05 10:11:28;;;;;;;2.50;1.45;;;;;;;34.37;100.00;98804.19;5089979;28;20561;-59
2022/07/05 10:13:56;;;;;;;3.35;1.55;;;;;;;34.18;100.00;98816.28;5089692;28;20143;-58
2022/07/05 10:16:23;;;;;;;2.03;1.30;;;;;;;34.31;100.00;98809.94;5089947;28;20052;-58
2022/07/05 10:18:52;;;;;;;3.28;1.48;;;;;;;34.19;100.00;98794.34;5089847;28;20173;-60
2022/07/05 10:21:19;;;;;;;3.45;1.20;;;;;;;34.00;100.00;98790.66;5089570;28;20052;-58
2022/07/05 10:23:47;;;;;;;2.40;1.67;;;;;;;34.19;100.00;98794.34;5089773;28;20047;-59
2022/07/05 10:26:14;;;;;;;2.65;1.40;;;;;;;33.78;100.00;98786.78;5089892;28;20059;-58
2022/07/05 10:28:45;;;;;;;2.40;1.30;;;;;;;33.47;100.00;98786.03;5089695;28;20117;-58
2022/07/05 10:31:13;;;;;;;3.33;1.30;;;;;;;32.80;100.00;98812.16;5089521;28;20077;-59
2022/07/05 10:33:39;;;;;;;2.15;1.40;;;;;;;32.35;100.00;98796.16;5089793;28;20052;-59
2022/07/05 10:36:07;;;;;;;1.45;1.35;;;;;;;32.44;100.00;98780.91;5089525;28;20052;-57
2022/07/05 10:38:37;;;;;;;3.63;1.38;;;;;;;32.35;100.00;98764.19;5089737;28;20055;-59
2022/07/05 10:41:07;;;;;;;2.97;1.52;;;;;;;32.11;100.00;98725.91;5089406;28;20087;-59
2022/07/05 10:43:33;;;;;;;3.00;1.40;;;;;;;31.97;100.00;98729.09;5089565;28;20104;-59
2022/07/05 10:46:00;;;;;;;3.10;1.60;;;;;;;32.28;100.00;98756.22;5089458;28;20058;-57
2022/07/05 10:48:28;;;;;;;4.97;1.35;;;;;;;31.44;100.00;98745.22;5089246;28;20644;-59
2022/07/05 10:50:55;;;;;;;1.50;1.40;;;;;;;31.73;100.00;98743.84;5089921;28;20091;-59
2022/07/05 10:53:23;;;;;;;2.15;1.33;;;;;;;31.64;100.00;98708.81;5093079;28;20134;-58
2022/07/05 10:55:53;;;;;;;2.90;1.50;;;;;;;31.57;100.00;98691.59;5092878;28;20044;-59
2022/07/05 10:58:28;;;;;;;4.28;1.70;;;;;;;31.55;100.00;98708.34;5092797;28;20423;-59
2022/07/05 11:01:42;;;;;;;3.17;1.77;;;;;;;31.29;100.00;98712.28;5092757;28;20048;-59
2022/07/05 11:04:33;;;;;;;2.35;1.30;;;;;;;29.75;100.00;98682.78;5092807;28;20087;-58
2022/07/05 11:07:00;;;;;;;1.60;1.50;;;;;;;29.66;100.00;98637.84;5092556;28;20052;-57
2022/07/05 11:09:26;;;;;;;2.95;1.50;;;;;;;29.69;100.00;98611.38;5093085;28;20075;-57
2022/07/05 11:12:06;;;;;;;1.48;1.38;;;;;;;29.43;100.00;98581.25;5092655;28;20430;-57
2022/07/05 11:14:37;;;;;;;2.72;1.52;;;;;;;29.95;100.00;98571.63;5092914;28;20514;-58
2022/07/05 11:17:25;;;;;;;3.15;1.80;;;;;;;30.18;100.00;98580.88;5092749;28;20055;-59
2022/07/05 11:20:22;;;;;;;1.83;1.60;;;;;;;29.70;100.00;98551.56;5092552;28;20063;-59
2022/07/05 11:23:09;;;;;;;2.92;1.50;;;;;;;29.91;100.00;98560.56;5092862;28;20067;-56
2022/07/05 11:25:37;;;;;;;1.67;1.58;;;;;;;29.95;100.00;98527.16;5092806;28;20135;-58